CYYZ Airport Information

Runway Information
Runway 05 Length 11120 ft width 200 ft
Elevation 564 ft Threshold 135 ft Heading 47
Runway 23 Length 11120 ft Width 200 ft
Elevation 560 ft Threshold 485 ft Heading 227
Runway 06L Length 9697 ft width 200 ft
Elevation 529 ft Threshold 0 ft Heading 47
Runway 24R Length 9697 ft Width 200 ft
Elevation 546 ft Threshold 197 ft Heading 227
Runway 06R Length 9000 ft width 200 ft
Elevation 525 ft Threshold 0 ft Heading 47
Runway 24L Length 9000 ft Width 200 ft
Elevation 547 ft Threshold 0 ft Heading 227
Runway 15L Length 11050 ft width 200 ft
Elevation 557 ft Threshold 0 ft Heading 137
Runway 33R Length 11050 ft Width 200 ft
Elevation 544 ft Threshold 0 ft Heading 317
Runway 15R Length 9088 ft width 200 ft
Elevation 551 ft Threshold 588 ft Heading 137
Runway 33L Length 9088 ft Width 200 ft
Elevation 544 ft Threshold 588 ft Heading 317
Airport Frequencies
Type ARR Name APP Frequency 124.475 MHZ
Type ATIS Name ATIS Frequency 112.15 MHZ
Type CLD Name CLNC DEL Frequency 121.3 MHZ
Type DEP Name DEP Frequency 127.575 MHZ
Type GND Name GND Frequency 118 MHZ
Type RCO Name LONDON RDO Frequency 123.275 MHZ
Type RMP Name APN ADVSY Frequency 122.075 MHZ
Type TWR Name TWR Frequency 118.35 MHZ
Type VFR ADV Name Toronto Ce Frequency 119.3 MHZ
Airport Navaids
Type DME Name Toronto Frequency 109100 KHZ
Type DME Name Toronto Frequency 109300 KHZ
Type DME Name Toronto Frequency 110950 KHZ
Type VOR-DME Name Pearson Frequency 116550 KHZ
Type VOR-DME Name Toronto Frequency 112150 KHZ
Type NDB Name Rexdale Frequency 385 KHZ
Type NDB Name Britannia Frequency 236 KHZ
Type NDB Name Meadowvale Frequency 341 KHZ
Type NDB Name Woodhill Frequency 403 KHZ
Type NDB Name Queensway Frequency 368 KHZ
Airport Weather Information & NOTAM
ADDS - METARS form results

(1435 UTC 24 June 2018)
 
METAR text: CYYZ 241400Z 06006KT 6SM RA BR SCT005 OVC012 17/16 A2983 RMK SF3SC5 SLP103 DENSITY ALT 1100FT
Conditions at: CYYZ (TORONTO/PEARSON , ON, CA) observed 1400 UTC 24 June 2018
Temperature: 17.0°C (63°F)
Dewpoint: 16.0°C (61°F) [RH = 94%]
Pressure (altimeter): 29.83 inches Hg (1010.2 mb)
[Sea-level pressure: 1010.3 mb]
Winds: from the ENE (60 degrees) at 7 MPH (6 knots; 3.1 m/s)
Visibility: 6 miles (10 km)
Ceiling: 1200 feet AGL
Clouds: scattered clouds at 500 feet AGL
overcast cloud deck at 1200 feet AGL
Weather: RA BR  (rain, mist)

METAR text: CYYZ 241351Z 05007KT 6SM RA BR SCT006 OVC013 17/16 A2983 RMK SF3SC5 SLP102 DENSITY ALT 1100FT
Conditions at: CYYZ (TORONTO/PEARSON , ON, CA) observed 1351 UTC 24 June 2018
Temperature: 17.0°C (63°F)
Dewpoint: 16.0°C (61°F) [RH = 94%]
Pressure (altimeter): 29.83 inches Hg (1010.2 mb)
[Sea-level pressure: 1010.2 mb]
Winds: from the NE (50 degrees) at 8 MPH (7 knots; 3.6 m/s)
Visibility: 6 miles (10 km)
Ceiling: 1300 feet AGL
Clouds: scattered clouds at 600 feet AGL
overcast cloud deck at 1300 feet AGL
Weather: RA BR  (rain, mist)